• Join FlightAware (Why Join?)
  • Login
  • US Flag 
09:44AM EDT


 

Airport Tracker/Info


-or-


 

Live Flight TrackerFlight Track Log ✈ GUG716 ✈ 01-Apr-2014 ✈ MNMG / MGA - MSLP / SAL

Flight Track Log - Related Links

Times and Time Zones

All times are in EDT time to prevent confusion due to time zone crossing. See the GUG716 flight status page for this flight to view local times or setup timezone preferences in your user account.

Time Position Orientation Groundspeed Altitude Reporting Facility
EDT Latitude Longitude Course Direction KTS MPH feet Rate Location/Type
02:52PM 12.5878 -87.1489 295° West  Level Estimated
02:53PM 12.6140 -87.2067 295° West  Level Estimated
02:54PM 12.6401 -87.2645 295° West  Level Estimated
02:55PM 12.6662 -87.3223 295° West  Level Estimated
02:56PM 12.6924 -87.3801 295° West  Level Estimated
02:57PM 12.7184 -87.4380 295° West  Level Estimated
02:58PM 12.7445 -87.4958 295° West  Level Estimated
02:59PM 12.7706 -87.5537 295° West  Level Estimated
03:00PM 12.7967 -87.6116 295° West  Level Estimated
03:01PM 12.8227 -87.6695 295° West  Level Estimated
03:02PM 12.8487 -87.7274 295° West  Level Estimated
03:03PM 12.8748 -87.7853 295° West  Level Estimated
03:04PM 12.9008 -87.8432 295° West  Level Estimated
03:05PM 12.9268 -87.9012 295° West  Level Estimated
03:06PM 12.9527 -87.9591 295° West  Level Estimated
03:07PM 12.9787 -88.0171 295° West  Level Estimated
03:08PM 13.0047 -88.0751 295° West  Level Estimated
03:09PM 13.0306 -88.1330 295° West  Level Estimated
03:10PM 13.0565 -88.1910 295° West  Level Estimated
03:11PM 13.0825 -88.2490 295° West  Level Estimated
03:12PM 13.1084 -88.3071 295° West  Level Estimated
03:13PM 13.1343 -88.3651 295° West  Level Estimated
03:14PM 13.1601 -88.4231 295° West  Level Estimated
03:15PM 13.1860 -88.4812 295° West  Level Estimated
03:16PM 13.2119 -88.5393 295° West  Level Estimated
03:17PM 13.2377 -88.5974 295° West  Level Estimated
03:18PM 13.2635 -88.6555 295° West  Level Estimated
03:19PM 13.2893 -88.7136 295° West  Level Estimated
03:20PM 13.3151 -88.7717 295° West  Level Estimated
03:21PM 13.3409 -88.8298 295° West  Level Estimated
03:22PM 13.3667 -88.8880 294° West  Level Estimated
03:23PM 13.3925 -88.9461 294° West  Level Estimated
03:24PM 13.4182 -89.0043 294° West  Level Estimated
03:25PM 13.4410 -89.0557 294° West  Level Estimated
03:26PM 13.4410 -89.0557 North  Level Estimated
03:27PM 13.4410 -89.0557 North  Level Estimated
03:28PM 13.4410 -89.0557 North  Level Estimated
03:29PM 13.4410 -89.0557 North  Level Estimated
03:30PM 13.4410 -89.0557 North  Level Estimated
03:31PM 13.4410 -89.0557 North  Level Estimated
03:32PM 13.4410 -89.0557 North  Level Estimated
03:33PM 13.4410 -89.0557 North  Level Estimated
03:34PM 13.4410 -89.0557 North  Level Estimated
03:35PM 13.4410 -89.0557 North  Level Estimated
03:36PM 13.4410 -89.0557 North  Level Estimated
03:37PM 13.4410 -89.0557 North  Level Estimated
03:38PM 13.4410 -89.0557 North  Level Estimated
03:39PM 13.4410 -89.0557 North  Level Estimated
03:40PM 13.4410 -89.0557 North  Level Estimated
03:41PM 13.4410 -89.0557 North  Level Estimated